Time;durP1;ratioP1;P1;durP2;ratioP2;P2;SDS_P1;SDS_P2;PMS_P1;PMS_P2;Temp;Humidity;BMP_temperature;BMP_pressure;BME280_temperature;BME280_humidity;BME280_pressure;Samples;Min_cycle;Max_cycle;Signal;HPM_P1;HPM_P2
2023/06/10 00:01:43;;;;;;;7.55;5.90;;;25.60;72.80;;;;;;5093154;28;20468;-69
2023/06/10 00:04:08;;;;;;;7.35;6.15;;;25.60;72.80;;;;;;5093183;28;20031;-67
2023/06/10 00:06:37;;;;;;;9.77;5.72;;;25.60;73.00;;;;;;5093139;28;20024;-67
2023/06/10 00:09:04;;;;;;;7.32;5.50;;;25.50;73.00;;;;;;5093314;28;20074;-66
2023/06/10 00:11:33;;;;;;;6.25;5.68;;;25.60;73.40;;;;;;5092726;28;20020;-66
2023/06/10 00:13:59;;;;;;;9.90;6.05;;;25.50;73.40;;;;;;5093230;28;20028;-67
2023/06/10 00:16:25;;;;;;;7.45;6.38;;;25.50;73.50;;;;;;5093152;28;20106;-67
2023/06/10 00:18:51;;;;;;;12.55;6.72;;;25.50;73.60;;;;;;5097264;28;20476;-68
2023/06/10 00:21:17;;;;;;;7.95;5.97;;;25.50;73.70;;;;;;5097336;28;20028;-67
2023/06/10 00:23:43;;;;;;;9.95;6.60;;;25.40;73.70;;;;;;5097130;28;20016;-67
2023/06/10 00:26:09;;;;;;;7.35;5.82;;;25.40;73.80;;;;;;5097053;28;20039;-71
2023/06/10 00:28:34;;;;;;;8.52;6.35;;;25.50;74.00;;;;;;5095751;28;20040;-68
2023/06/10 00:31:00;;;;;;;11.18;6.03;;;25.40;74.10;;;;;;5097053;28;20020;-66
2023/06/10 00:33:26;;;;;;;8.60;5.75;;;25.40;74.20;;;;;;5096978;28;20059;-66
2023/06/10 00:35:51;;;;;;;8.55;6.43;;;25.40;74.20;;;;;;5101097;28;20028;-67
2023/06/10 00:38:17;;;;;;;8.73;6.57;;;25.30;74.20;;;;;;5097521;28;20492;-71
2023/06/10 00:40:43;;;;;;;6.18;5.57;;;25.30;74.30;;;;;;5096535;28;20362;-70
2023/06/10 00:43:09;;;;;;;10.15;6.68;;;25.30;74.40;;;;;;5076603;28;20092;-72
2023/06/10 00:45:35;;;;;;;6.68;5.80;;;25.30;74.40;;;;;;5074618;28;20558;-69
2023/06/10 00:48:01;;;;;;;8.85;6.30;;;25.30;74.50;;;;;;5076295;28;20021;-71
2023/06/10 00:50:27;;;;;;;6.47;5.80;;;25.30;74.60;;;;;;5076304;28;20025;-70
2023/06/10 00:52:54;;;;;;;7.60;5.90;;;25.20;74.60;;;;;;5076255;28;20040;-71
2023/06/10 00:55:20;;;;;;;7.40;6.70;;;25.20;74.80;;;;;;5075897;28;20032;-71
2023/06/10 00:57:48;;;;;;;7.25;6.55;;;25.20;74.90;;;;;;5076193;28;20029;-70
2023/06/10 01:00:15;;;;;;;6.78;6.13;;;25.10;74.90;;;;;;5076278;28;20063;-71
2023/06/10 01:02:40;;;;;;;8.57;6.15;;;25.10;75.00;;;;;;5075939;28;20400;-70
2023/06/10 01:05:07;;;;;;;7.43;6.57;;;25.10;75.10;;;;;;5076099;28;20461;-72
2023/06/10 01:07:56;;;;;;;7.65;6.60;;;25.10;75.10;;;;;;5075994;28;20075;-69
2023/06/10 01:10:30;;;;;;;8.18;6.38;;;25.10;75.20;;;;;;5069810;28;20036;-70
2023/06/10 01:13:02;;;;;;;11.55;7.35;;;25.10;75.30;;;;;;5075949;28;20056;-72
2023/06/10 01:15:31;;;;;;;7.28;6.60;;;25.10;75.40;;;;;;5075827;28;20119;-71
2023/06/10 01:17:58;;;;;;;7.25;6.55;;;25.10;75.50;;;;;;5075633;28;20021;-72
2023/06/10 01:20:26;;;;;;;7.47;6.18;;;25.00;75.60;;;;;;5075913;28;20033;-71
2023/06/10 01:22:55;;;;;;;10.02;6.47;;;25.00;75.60;;;;;;5075467;28;20028;-71
2023/06/10 01:25:28;;;;;;;9.00;6.70;;;25.00;75.70;;;;;;5075707;28;20039;-70
2023/06/10 01:28:17;;;;;;;7.85;6.57;;;25.00;75.80;;;;;;5075055;28;20025;-72
2023/06/10 01:30:57;;;;;;;9.15;6.40;;;25.00;75.90;;;;;;5069161;28;20058;-70
2023/06/10 01:33:29;;;;;;;6.95;6.25;;;24.90;75.90;;;;;;5075565;28;20052;-71
2023/06/10 01:35:57;;;;;;;8.25;6.43;;;24.90;75.90;;;;;;5075608;28;20056;-69
2023/06/10 01:38:25;;;;;;;8.20;6.72;;;24.90;76.10;;;;;;5074994;28;20028;-70
2023/06/10 01:40:55;;;;;;;8.40;6.95;;;24.90;76.10;;;;;;5075530;28;20358;-71
2023/06/10 01:43:21;;;;;;;8.85;6.60;;;24.90;76.20;;;;;;5075222;28;20021;-70
2023/06/10 01:45:47;;;;;;;8.30;6.03;;;24.90;76.30;;;;;;5075642;28;20028;-72
2023/06/10 01:48:13;;;;;;;8.23;6.10;;;24.90;76.30;;;;;;5075310;28;20477;-71
2023/06/10 01:50:38;;;;;;;7.63;6.80;;;24.80;76.30;;;;;;5075198;28;20028;-71
2023/06/10 01:53:05;;;;;;;7.65;6.47;;;24.80;76.40;;;;;;5074998;28;20027;-70
2023/06/10 01:55:31;;;;;;;8.38;7.18;;;24.80;76.50;;;;;;5074744;28;20119;-68
2023/06/10 01:57:56;;;;;;;10.05;6.57;;;24.80;76.60;;;;;;5075340;28;20414;-70
2023/06/10 02:00:22;;;;;;;10.20;6.95;;;24.80;76.60;;;;;;5074980;28;20529;-72
2023/06/10 02:02:47;;;;;;;8.18;5.70;;;24.80;76.70;;;;;;5075100;28;20032;-71
2023/06/10 02:05:13;;;;;;;11.88;7.25;;;24.80;76.70;;;;;;5074910;28;20024;-71
2023/06/10 02:07:39;;;;;;;12.98;7.30;;;24.70;76.70;;;;;;5074650;28;20099;-70
2023/06/10 02:10:06;;;;;;;9.48;6.63;;;24.70;77.50;;;;;;5074918;28;20082;-69
2023/06/10 02:12:31;;;;;;;8.50;6.97;;;24.60;76.90;;;;;;5074679;28;20021;-71
2023/06/10 02:14:57;;;;;;;11.82;7.38;;;24.60;77.00;;;;;;5074583;28;20538;-72
2023/06/10 02:17:23;;;;;;;7.93;6.85;;;24.60;77.10;;;;;;5071772;28;20021;-71
2023/06/10 02:19:52;;;;;;;7.50;6.80;;;24.60;77.10;;;;;;5074593;28;20052;-70
2023/06/10 02:22:24;;;;;;;9.85;7.07;;;24.60;77.20;;;;;;5074332;28;20104;-70
2023/06/10 02:24:49;;;;;;;8.10;7.28;;;24.60;77.30;;;;;;5074632;28;20025;-70
2023/06/10 02:27:16;;;;;;;10.48;7.38;;;24.60;77.30;;;;;;5074695;28;20508;-68
2023/06/10 02:29:43;;;;;;;9.38;7.10;;;24.60;77.40;;;;;;5074465;28;20027;-70
2023/06/10 02:32:09;;;;;;;7.60;6.72;;;24.50;77.40;;;;;;5073353;28;20024;-71
2023/06/10 02:34:34;;;;;;;7.85;6.57;;;24.50;77.50;;;;;;5074185;28;20116;-67
2023/06/10 02:37:00;;;;;;;9.35;7.10;;;24.50;77.60;;;;;;5072768;28;20025;-67
2023/06/10 02:39:27;;;;;;;7.97;6.70;;;24.50;77.70;;;;;;5073395;28;20104;-66
2023/06/10 02:41:53;;;;;;;12.38;7.30;;;24.40;77.70;;;;;;5074343;28;20073;-66
2023/06/10 02:44:19;;;;;;;7.32;6.63;;;24.40;77.80;;;;;;5074293;28;20028;-67
2023/06/10 02:46:45;;;;;;;10.65;6.95;;;24.40;77.80;;;;;;5073974;28;20020;-66
2023/06/10 02:49:11;;;;;;;8.48;7.53;;;24.40;78.00;;;;;;5074387;28;20082;-67
2023/06/10 02:51:36;;;;;;;8.73;6.80;;;24.40;78.10;;;;;;5074695;28;20016;-67
2023/06/10 02:54:02;;;;;;;9.05;6.80;;;24.40;78.20;;;;;;5074898;28;20071;-70
2023/06/10 02:56:28;;;;;;;10.80;7.28;;;24.30;78.20;;;;;;5073648;28;20048;-70
2023/06/10 02:58:53;;;;;;;9.15;7.05;;;24.30;78.40;;;;;;5073896;28;20461;-68
2023/06/10 03:01:19;;;;;;;8.85;7.75;;;24.30;78.40;;;;;;5073800;28;20024;-68
2023/06/10 03:03:46;;;;;;;8.73;7.03;;;24.30;78.50;;;;;;5073878;28;20575;-67
2023/06/10 03:06:12;;;;;;;9.10;7.45;;;24.30;78.60;;;;;;5073410;28;20028;-69
2023/06/10 03:08:38;;;;;;;8.52;7.60;;;24.30;78.70;;;;;;5073719;28;20466;-67
2023/06/10 03:11:04;;;;;;;10.07;8.35;;;24.20;78.80;;;;;;5073494;28;20108;-67
2023/06/10 03:13:30;;;;;;;8.02;7.25;;;24.20;78.80;;;;;;5073676;28;20052;-66
2023/06/10 03:15:56;;;;;;;16.08;7.68;;;24.20;78.90;;;;;;5073559;28;20107;-66
2023/06/10 03:18:26;;;;;;;10.43;7.68;;;24.20;79.00;;;;;;5073485;28;20021;-67
2023/06/10 03:20:52;;;;;;;8.20;7.30;;;24.10;79.00;;;;;;5073390;28;20024;-67
2023/06/10 03:23:18;;;;;;;10.55;7.68;;;24.10;79.10;;;;;;5073525;28;20024;-67
2023/06/10 03:25:44;;;;;;;9.15;7.30;;;24.10;79.20;;;;;;5072013;28;20035;-67
2023/06/10 03:28:10;;;;;;;11.32;7.80;;;24.10;79.30;;;;;;5073552;28;20077;-67
2023/06/10 03:30:35;;;;;;;10.70;8.27;;;24.10;79.30;;;;;;5073240;28;20029;-67
2023/06/10 03:33:01;;;;;;;12.13;7.22;;;24.10;79.40;;;;;;5073340;28;20017;-69
2023/06/10 03:35:26;;;;;;;9.32;7.72;;;24.10;79.50;;;;;;5073060;28;20056;-67
2023/06/10 03:37:52;;;;;;;10.63;7.57;;;24.10;79.60;;;;;;5073256;28;20028;-69
2023/06/10 03:40:17;;;;;;;8.60;7.78;;;24.00;79.60;;;;;;5073405;28;20086;-69
2023/06/10 03:42:44;;;;;;;11.93;8.15;;;24.00;79.70;;;;;;5073207;28;20450;-66
2023/06/10 03:45:10;;;;;;;8.88;7.88;;;24.00;79.80;;;;;;5073217;28;20066;-66
2023/06/10 03:47:37;;;;;;;9.38;7.45;;;24.00;79.90;;;;;;5073168;28;20377;-66
2023/06/10 03:50:06;;;;;;;10.80;7.53;;;24.00;79.90;;;;;;5073314;28;20016;-67
2023/06/10 03:52:31;;;;;;;9.77;7.75;;;24.00;80.00;;;;;;5072895;28;20029;-68
2023/06/10 03:54:57;;;;;;;8.63;7.38;;;23.90;80.00;;;;;;5072937;28;20032;-67
2023/06/10 03:57:22;;;;;;;8.40;7.22;;;23.90;80.10;;;;;;5073055;28;20046;-66
2023/06/10 03:59:48;;;;;;;8.82;7.43;;;23.90;80.20;;;;;;5073097;28;20065;-67
2023/06/10 04:02:13;;;;;;;11.75;8.77;;;23.90;80.20;;;;;;5072891;28;20465;-66
2023/06/10 04:04:39;;;;;;;9.68;8.52;;;23.90;80.40;;;;;;5073115;28;20143;-66
2023/06/10 04:07:05;;;;;;;10.18;7.97;;;23.80;80.40;;;;;;5071633;28;20165;-67
2023/06/10 04:09:30;;;;;;;12.70;6.97;;;23.80;80.50;;;;;;5073079;28;20032;-66
2023/06/10 04:11:56;;;;;;;9.60;8.27;;;23.80;80.50;;;;;;5072974;28;20028;-67
2023/06/10 04:14:22;;;;;;;11.73;7.57;;;23.80;80.70;;;;;;5072957;28;20428;-66
2023/06/10 04:16:47;;;;;;;10.25;8.48;;;23.80;80.70;;;;;;5072425;28;20116;-66
2023/06/10 04:19:13;;;;;;;9.90;7.75;;;23.80;80.70;;;;;;5073030;28;20052;-67
2023/06/10 04:21:38;;;;;;;10.02;8.52;;;23.70;80.80;;;;;;5072741;28;20039;-66
2023/06/10 04:24:04;;;;;;;9.50;8.48;;;23.80;80.90;;;;;;5073031;28;20078;-66
2023/06/10 04:26:30;;;;;;;8.85;7.68;;;23.70;80.90;;;;;;5072773;28;20457;-66
2023/06/10 04:28:55;;;;;;;10.88;7.97;;;23.70;81.00;;;;;;5072712;28;20023;-67
2023/06/10 04:31:21;;;;;;;8.93;7.78;;;23.70;81.10;;;;;;5072595;28;20103;-66
2023/06/10 04:33:46;;;;;;;10.48;8.52;;;23.70;81.10;;;;;;5072775;28;20016;-66
2023/06/10 04:36:12;;;;;;;9.43;8.43;;;23.70;81.20;;;;;;5072655;28;20473;-66
2023/06/10 04:38:37;;;;;;;9.68;7.63;;;23.70;81.30;;;;;;5072582;28;20063;-66
2023/06/10 04:41:03;;;;;;;10.13;8.20;;;23.70;81.30;;;;;;5072801;28;20020;-67
2023/06/10 04:43:30;;;;;;;10.43;8.10;;;23.70;81.30;;;;;;5072494;28;20448;-67
2023/06/10 04:45:56;;;;;;;10.38;7.85;;;23.60;81.20;;;;;;5072507;28;20026;-65
2023/06/10 04:48:23;;;;;;;11.88;8.10;;;23.60;81.20;;;;;;5072600;28;20021;-66
2023/06/10 04:50:50;;;;;;;11.63;8.50;;;23.60;81.20;;;;;;5072789;28;20039;-65
2023/06/10 04:53:16;;;;;;;8.48;7.68;;;23.60;81.30;;;;;;5072460;28;20020;-66
2023/06/10 04:55:42;;;;;;;10.68;8.60;;;23.60;81.30;;;;;;5072203;28;20175;-66
2023/06/10 04:58:07;;;;;;;14.27;8.18;;;23.60;81.30;;;;;;5072518;28;20487;-66
2023/06/10 05:00:33;;;;;;;12.68;7.72;;;23.60;81.30;;;;;;5072254;28;20029;-65
2023/06/10 05:02:58;;;;;;;9.80;8.85;;;23.60;81.30;;;;;;5072837;28;20024;-66
2023/06/10 05:05:24;;;;;;;8.88;7.30;;;23.60;81.30;;;;;;5075828;28;20519;-66
2023/06/10 05:07:49;;;;;;;9.45;7.72;;;23.50;81.30;;;;;;5075874;28;20021;-66
2023/06/10 05:10:15;;;;;;;10.85;8.77;;;23.60;81.40;;;;;;5076322;28;20104;-66
2023/06/10 05:12:41;;;;;;;10.13;7.72;;;23.50;81.40;;;;;;5077460;28;20368;-65
2023/06/10 05:15:07;;;;;;;10.40;8.25;;;23.60;81.40;;;;;;5075982;28;20040;-71
2023/06/10 05:17:34;;;;;;;10.43;8.73;;;23.60;81.50;;;;;;5075949;28;20032;-67
2023/06/10 05:20:00;;;;;;;8.90;7.60;;;23.60;81.60;;;;;;5075799;28;20017;-66
2023/06/10 05:22:27;;;;;;;11.75;8.93;;;23.50;81.60;;;;;;5075874;28;20027;-67
2023/06/10 05:24:53;;;;;;;9.38;8.15;;;23.50;81.50;;;;;;5075734;28;20112;-65
2023/06/10 05:27:19;;;;;;;8.98;8.05;;;23.50;81.50;;;;;;5075614;28;20025;-67
2023/06/10 05:29:45;;;;;;;10.57;8.32;;;23.60;81.70;;;;;;5079714;28;20028;-65
2023/06/10 05:32:11;;;;;;;10.35;8.23;;;23.60;81.80;;;;;;5094090;28;20062;-66
2023/06/10 05:34:37;;;;;;;9.90;8.13;;;23.50;81.80;;;;;;5093187;28;20019;-66
2023/06/10 05:37:03;;;;;;;8.82;7.47;;;23.50;82.00;;;;;;5095690;28;20035;-66
2023/06/10 05:39:28;;;;;;;10.68;8.65;;;23.60;81.80;;;;;;5095525;28;20102;-64
2023/06/10 05:41:54;;;;;;;7.90;7.10;;;23.60;81.70;;;;;;5095498;28;20065;-64
2023/06/10 05:44:19;;;;;;;7.85;7.00;;;23.70;82.50;;;;;;5095456;28;20020;-65
2023/06/10 05:46:45;;;;;;;11.50;7.60;;;23.70;82.30;;;;;;5095592;28;20024;-65
2023/06/10 05:49:11;;;;;;;7.63;6.90;;;23.70;82.00;;;;;;5095584;28;20470;-66
2023/06/10 05:51:37;;;;;;;10.23;6.97;;;23.80;82.00;;;;;;5095468;28;20464;-65
2023/06/10 05:54:02;;;;;;;8.18;6.85;;;23.80;81.90;;;;;;5095376;28;20024;-64
2023/06/10 05:56:28;;;;;;;8.10;6.93;;;23.80;82.10;;;;;;5093786;28;20054;-64
2023/06/10 05:58:54;;;;;;;7.25;6.55;;;23.80;82.00;;;;;;5095023;28;20017;-66
2023/06/10 06:01:19;;;;;;;6.90;6.25;;;23.90;82.20;;;;;;5095426;28;20032;-65
2023/06/10 06:03:45;;;;;;;7.85;6.60;;;23.90;82.20;;;;;;5095171;28;20032;-64
2023/06/10 06:06:11;;;;;;;7.22;6.53;;;23.90;82.20;;;;;;5095234;28;20032;-64
2023/06/10 06:08:36;;;;;;;7.32;6.72;;;24.00;82.20;;;;;;5095163;28;20465;-65
2023/06/10 06:11:02;;;;;;;7.32;6.63;;;24.00;82.10;;;;;;5094826;28;20028;-64
2023/06/10 06:13:27;;;;;;;6.88;6.18;;;24.00;82.20;;;;;;5094903;28;20362;-66
2023/06/10 06:15:53;;;;;;;9.98;7.18;;;24.00;82.20;;;;;;5094835;28;20020;-64
2023/06/10 06:18:18;;;;;;;7.00;6.30;;;24.10;82.10;;;;;;5095001;28;20369;-65
2023/06/10 06:20:44;;;;;;;6.30;5.75;;;24.10;82.20;;;;;;5094897;28;20031;-64
2023/06/10 06:23:10;;;;;;;8.57;6.80;;;24.10;82.10;;;;;;5094782;28;20016;-64
2023/06/10 06:25:38;;;;;;;8.80;6.45;;;24.20;82.00;;;;;;5094496;28;20024;-64
2023/06/10 06:28:08;;;;;;;7.90;6.20;;;24.20;82.00;;;;;;5094497;28;20043;-64
2023/06/10 06:30:34;;;;;;;6.53;6.03;;;24.20;81.90;;;;;;5094649;28;20112;-64
2023/06/10 06:33:00;;;;;;;8.63;6.65;;;24.30;82.00;;;;;;5094683;28;20047;-64
2023/06/10 06:35:26;;;;;;;12.00;6.88;;;24.30;82.00;;;;;;5094574;28;20460;-66
2023/06/10 06:37:51;;;;;;;9.75;7.18;;;24.40;81.40;;;;;;5076782;28;20028;-66
2023/06/10 06:40:17;;;;;;;11.35;7.60;;;24.50;80.30;;;;;;5080568;28;20028;-67
2023/06/10 06:42:42;;;;;;;9.85;6.68;;;24.60;79.90;;;;;;5073816;28;20066;-66
2023/06/10 06:45:08;;;;;;;13.50;7.80;;;24.70;79.60;;;;;;5073693;28;20058;-67
2023/06/10 06:47:34;;;;;;;9.02;6.93;;;24.80;79.50;;;;;;5073598;28;20021;-68
2023/06/10 06:49:59;;;;;;;8.25;6.60;;;24.90;79.30;;;;;;5076774;28;20020;-67
2023/06/10 06:52:25;;;;;;;11.60;7.38;;;25.00;79.30;;;;;;5077354;28;20542;-67
2023/06/10 06:54:50;;;;;;;9.48;7.25;;;25.10;78.80;;;;;;5080806;28;20043;-66
2023/06/10 06:57:16;;;;;;;12.88;6.68;;;25.20;78.70;;;;;;5073564;28;20032;-67
2023/06/10 06:59:42;;;;;;;8.55;7.65;;;25.30;79.10;;;;;;5083605;28;20028;-66
2023/06/10 07:02:07;;;;;;;7.78;6.88;;;25.30;78.60;;;;;;5082945;28;20040;-67
2023/06/10 07:04:33;;;;;;;11.50;6.68;;;25.40;78.40;;;;;;5073113;28;20066;-65
2023/06/10 07:06:58;;;;;;;9.68;7.57;;;25.50;78.20;;;;;;5073127;28;20388;-65
2023/06/10 07:09:24;;;;;;;9.02;7.18;;;25.60;77.80;;;;;;5083155;28;20436;-67
2023/06/10 07:11:50;;;;;;;7.20;6.50;;;25.70;77.90;;;;;;5081682;28;20035;-66
2023/06/10 07:14:15;;;;;;;8.80;7.07;;;25.70;78.10;;;;;;5077213;28;20051;-67
2023/06/10 07:16:41;;;;;;;8.02;5.75;;;25.80;78.00;;;;;;5081334;28;20036;-66
2023/06/10 07:19:06;;;;;;;6.82;5.78;;;25.90;77.00;;;;;;5073519;28;20028;-67
2023/06/10 07:21:33;;;;;;;7.03;6.32;;;26.00;77.40;;;;;;5090701;28;20039;-67
2023/06/10 07:23:59;;;;;;;8.13;6.93;;;26.00;77.20;;;;;;5079314;28;20021;-66
2023/06/10 07:26:25;;;;;;;8.40;6.57;;;26.10;77.00;;;;;;5071904;28;20043;-66
2023/06/10 07:28:51;;;;;;;8.15;6.63;;;26.20;76.20;;;;;;5083531;28;20016;-66
2023/06/10 07:31:17;;;;;;;8.45;6.28;;;26.20;76.30;;;;;;5082381;28;20131;-65
2023/06/10 07:33:43;;;;;;;10.77;5.95;;;26.30;76.20;;;;;;5083999;28;20031;-70
2023/06/10 07:36:09;;;;;;;7.93;6.43;;;26.40;76.00;;;;;;5082442;28;20044;-68
2023/06/10 07:38:35;;;;;;;8.63;5.68;;;26.50;76.10;;;;;;5076105;28;20469;-67
2023/06/10 07:41:01;;;;;;;8.25;5.82;;;26.60;76.10;;;;;;5075172;28;20063;-66
2023/06/10 07:43:26;;;;;;;7.50;6.55;;;26.60;76.10;;;;;;5076222;28;20423;-66
2023/06/10 07:45:52;;;;;;;9.48;5.95;;;26.70;75.50;;;;;;5078558;28;20466;-67
2023/06/10 07:48:18;;;;;;;7.20;6.13;;;26.70;75.40;;;;;;5085885;28;20488;-67
2023/06/10 07:50:44;;;;;;;7.63;5.75;;;26.90;75.20;;;;;;5086393;28;20024;-67
2023/06/10 07:53:09;;;;;;;6.50;5.15;;;27.00;74.80;;;;;;5095389;28;20473;-68
2023/06/10 07:55:35;;;;;;;11.43;5.82;;;26.90;74.80;;;;;;5072133;28;20044;-68
2023/06/10 07:58:00;;;;;;;11.40;5.88;;;27.00;74.90;;;;;;5080969;28;20396;-64
2023/06/10 08:00:26;;;;;;;6.38;5.50;;;27.00;76.30;;;;;;5084682;28;20518;-68
2023/06/10 08:02:52;;;;;;;6.72;5.32;;;27.00;75.40;;;;;;5089897;28;20028;-66
2023/06/10 08:05:18;;;;;;;7.75;5.75;;;27.10;74.80;;;;;;5090123;28;20028;-67
2023/06/10 08:07:45;;;;;;;7.55;5.53;;;27.20;74.30;;;;;;5087662;28;20384;-65
2023/06/10 08:10:11;;;;;;;5.80;5.13;;;27.20;74.30;;;;;;5072498;28;20028;-65
2023/06/10 08:12:37;;;;;;;7.60;6.47;;;27.30;74.90;;;;;;5076388;28;20046;-64
2023/06/10 08:15:06;;;;;;;9.93;6.32;;;27.30;74.90;;;;;;5084036;28;20481;-63
2023/06/10 08:17:31;;;;;;;5.82;5.00;;;27.30;75.90;;;;;;5088173;28;20035;-64
2023/06/10 08:19:57;;;;;;;7.90;5.13;;;27.30;74.30;;;;;;5087939;28;20024;-64
2023/06/10 08:22:23;;;;;;;5.95;5.18;;;27.40;73.00;;;;;;5083273;28;20392;-64
2023/06/10 08:24:48;;;;;;;8.45;6.20;;;27.50;73.00;;;;;;5089357;28;20050;-64
2023/06/10 08:27:14;;;;;;;6.57;5.18;;;27.50;73.80;;;;;;5087171;28;20028;-67
2023/06/10 08:29:40;;;;;;;7.43;5.50;;;27.70;73.10;;;;;;5091771;28;20583;-64
2023/06/10 08:32:06;;;;;;;9.60;5.80;;;27.60;74.20;;;;;;5089169;28;20031;-69
2023/06/10 08:34:35;;;;;;;6.70;5.05;;;27.70;73.50;;;;;;5084924;28;20717;-67
2023/06/10 08:37:02;;;;;;;8.52;4.65;;;27.70;71.10;;;;;;5085041;28;20039;-63
2023/06/10 08:39:27;;;;;;;6.40;4.55;;;27.80;70.90;;;;;;5094285;28;20016;-68
2023/06/10 08:42:21;;;;;;;5.97;4.57;;;27.90;72.00;;;;;;5094312;28;20085;-64
2023/06/10 08:44:52;;;;;;;8.77;4.90;;;27.90;73.20;;;;;;5072709;28;20097;-67
2023/06/10 08:47:22;;;;;;;10.88;6.28;;;28.00;71.00;;;;;;5093207;28;20061;-66
2023/06/10 08:49:47;;;;;;;8.23;5.35;;;28.00;75.10;;;;;;5088291;28;20028;-64
2023/06/10 08:52:18;;;;;;;6.72;5.30;;;28.00;71.90;;;;;;5093519;28;20041;-65
2023/06/10 08:54:58;;;;;;;9.23;4.90;;;28.10;70.30;;;;;;5076323;28;20035;-64
2023/06/10 08:57:26;;;;;;;8.10;5.30;;;28.10;70.80;;;;;;5081682;28;20047;-64
2023/06/10 08:59:54;;;;;;;5.35;4.03;;;28.20;69.50;;;;;;5092658;28;20027;-65
2023/06/10 09:02:21;;;;;;;6.63;4.70;;;28.30;69.50;;;;;;5088323;28;20012;-66
2023/06/10 09:04:49;;;;;;;6.88;4.93;;;28.30;68.80;;;;;;5081994;28;20033;-66
2023/06/10 09:07:16;;;;;;;8.30;5.25;;;28.30;73.20;;;;;;5090922;28;20377;-67
2023/06/10 09:09:43;;;;;;;6.10;4.80;;;28.30;71.30;;;;;;5092483;28;20039;-64
2023/06/10 09:12:10;;;;;;;6.40;4.50;;;28.30;68.80;;;;;;5076818;28;20069;-69
2023/06/10 09:14:36;;;;;;;6.03;4.32;;;28.40;68.50;;;;;;5091128;28;20144;-67
2023/06/10 09:17:03;;;;;;;6.03;4.60;;;28.40;68.60;;;;;;5087062;28;20508;-66
2023/06/10 09:19:29;;;;;;;9.60;5.88;;;28.40;70.60;;;;;;5086190;28;20103;-68
2023/06/10 09:21:55;;;;;;;6.45;4.82;;;28.40;72.60;;;;;;5091143;28;20039;-66
2023/06/10 09:24:24;;;;;;;7.57;4.18;;;28.40;69.00;;;;;;5077713;28;20020;-66
2023/06/10 09:26:50;;;;;;;6.20;4.47;;;28.50;68.50;;;;;;5083246;28;20031;-65
2023/06/10 09:29:17;;;;;;;6.15;4.13;;;28.50;68.00;;;;;;5083350;28;20020;-69
2023/06/10 09:31:44;;;;;;;7.88;4.97;;;28.50;70.50;;;;;;5082203;28;20029;-70
2023/06/10 09:34:11;;;;;;;5.82;4.90;;;28.60;69.30;;;;;;5078455;28;20110;-70
2023/06/10 09:36:38;;;;;;;6.72;4.60;;;28.50;70.50;;;;;;5083695;28;20040;-67
2023/06/10 09:39:04;;;;;;;7.35;5.13;;;28.50;71.90;;;;;;5084023;28;20044;-68
2023/06/10 09:41:40;;;;;;;5.00;4.47;;;28.40;70.50;;;;;;5087417;28;20028;-68
2023/06/10 09:44:15;;;;;;;8.23;4.97;;;28.40;71.70;;;;;;5085888;28;20020;-68
2023/06/10 09:46:42;;;;;;;11.25;5.28;;;28.40;71.40;;;;;;5078842;28;20028;-64
2023/06/10 09:49:08;;;;;;;6.85;4.53;;;28.40;72.40;;;;;;5079813;28;20032;-66
2023/06/10 09:51:33;;;;;;;5.05;3.90;;;28.40;70.50;;;;;;5081022;28;20031;-66
2023/06/10 09:54:05;;;;;;;5.43;4.05;;;28.50;69.30;;;;;;5076231;28;20039;-64
2023/06/10 09:56:37;;;;;;;6.30;4.43;;;28.50;68.40;;;;;;5084311;28;20115;-67
2023/06/10 09:59:03;;;;;;;;;;;28.60;68.00;;;;;;5084689;28;20028;-66
2023/06/10 10:01:30;;;;;;;6.47;4.78;;;28.60;67.70;;;;;;5081776;28;20454;-68
2023/06/10 10:03:56;;;;;;;4.85;4.38;;;28.60;67.60;;;;;;5089125;28;20102;-66
2023/06/10 10:06:22;;;;;;;5.32;4.68;;;28.70;68.20;;;;;;5087510;28;20149;-67
2023/06/10 10:08:49;;;;;;;9.57;4.68;;;28.60;67.60;;;;;;5086315;28;20039;-65
2023/06/10 10:11:19;;;;;;;6.45;4.28;;;28.60;69.10;;;;;;5085939;28;20062;-66
2023/06/10 10:13:47;;;;;;;8.90;4.80;;;28.60;68.40;;;;;;5091979;28;20028;-66
2023/06/10 10:16:16;;;;;;;6.78;4.63;;;28.60;69.80;;;;;;5090414;28;20092;-67
2023/06/10 10:18:46;;;;;;;7.63;5.20;;;28.60;69.70;;;;;;5093382;28;20035;-68
2023/06/10 10:21:13;;;;;;;5.80;5.10;;;28.60;66.10;;;;;;5091845;28;20070;-64
2023/06/10 10:24:00;;;;;;;6.43;4.80;;;28.60;67.80;;;;;;5086977;28;20133;-66
2023/06/10 10:26:26;;;;;;;5.93;4.63;;;28.70;65.70;;;;;;5087977;28;20036;-70
2023/06/10 10:29:05;;;;;;;6.35;4.63;;;28.60;69.40;;;;;;5093691;28;20114;-67
2023/06/10 10:31:34;;;;;;;10.73;4.93;;;28.60;69.90;;;;;;5080745;28;20509;-67
2023/06/10 10:34:04;;;;;;;7.55;5.15;;;28.60;70.70;;;;;;5085365;28;20028;-66
2023/06/10 10:36:31;;;;;;;6.90;5.47;;;28.60;69.70;;;;;;5087520;28;20039;-69
2023/06/10 10:38:58;;;;;;;7.10;5.35;;;28.60;68.40;;;;;;5083021;28;20039;-68
2023/06/10 10:41:26;;;;;;;5.63;5.00;;;28.70;65.70;;;;;;5090023;28;20051;-68
2023/06/10 10:43:52;;;;;;;8.95;5.95;;;28.70;66.00;;;;;;5084838;28;20024;-67
2023/06/10 10:46:18;;;;;;;5.13;4.63;;;28.70;67.20;;;;;;5085193;28;20103;-67
2023/06/10 10:48:45;;;;;;;7.80;4.97;;;28.80;65.50;;;;;;5090807;28;20439;-66
2023/06/10 10:51:11;;;;;;;7.35;4.63;;;28.70;64.80;;;;;;5091227;28;20023;-66
2023/06/10 10:53:38;;;;;;;8.02;5.60;;;28.80;64.60;;;;;;5086545;28;20107;-67
2023/06/10 10:56:12;;;;;;;5.65;5.15;;;28.80;65.00;;;;;;5089556;28;20502;-65
2023/06/10 10:58:38;;;;;;;9.43;7.25;;;28.90;64.70;;;;;;5077992;28;20020;-68
2023/06/10 11:01:14;;;;;;;7.20;5.32;;;28.90;65.50;;;;;;5090227;28;20484;-67
2023/06/10 11:03:47;;;;;;;7.70;5.72;;;28.90;63.70;;;;;;5086417;28;20077;-67
2023/06/10 11:06:15;;;;;;;11.18;9.52;;;28.90;63.90;;;;;;5088371;28;20449;-68
2023/06/10 11:08:40;;;;;;;8.02;6.78;;;28.90;65.60;;;;;;5086007;28;20103;-68
2023/06/10 11:11:26;;;;;;;7.68;5.93;;;28.90;64.20;;;;;;5085026;28;20178;-68
2023/06/10 11:14:01;;;;;;;31.90;16.45;;;28.90;64.70;;;;;;5087153;28;20028;-68
2023/06/10 11:16:28;;;;;;;40.40;29.45;;;28.80;69.20;;;;;;5085632;28;20468;-67
2023/06/10 11:18:55;;;;;;;19.10;13.45;;;28.70;71.80;;;;;;5081058;28;20073;-72
2023/06/10 11:21:22;;;;;;;12.93;11.27;;;28.70;68.60;;;;;;5074385;28;20024;-73
2023/06/10 11:23:50;;;;;;;7.82;5.10;;;28.70;68.60;;;;;;5088961;28;20032;-68
2023/06/10 11:26:31;;;;;;;8.98;6.93;;;28.70;62.50;;;;;;5083767;28;20032;-67
2023/06/10 11:28:57;;;;;;;21.70;14.30;;;28.80;64.00;;;;;;5083392;28;20032;-66
2023/06/10 11:31:23;;;;;;;25.65;17.38;;;28.70;69.70;;;;;;5083025;28;20051;-68
2023/06/10 11:33:59;;;;;;;18.48;15.18;;;28.70;71.00;;;;;;5081596;28;20040;-66
2023/06/10 11:36:26;;;;;;;10.20;7.90;;;28.60;69.70;;;;;;5080300;28;20438;-66
2023/06/10 11:39:03;;;;;;;13.52;10.52;;;28.60;66.20;;;;;;5081211;28;21302;-65
2023/06/10 11:41:30;;;;;;;6.53;5.93;;;28.60;69.20;;;;;;5075639;28;20043;-67
2023/06/10 11:44:00;;;;;;;6.82;5.03;;;28.70;63.40;;;;;;5089562;28;20024;-66
2023/06/10 11:46:27;;;;;;;6.25;4.80;;;28.70;66.30;;;;;;5086564;28;20031;-67
2023/06/10 11:48:58;;;;;;;5.68;5.03;;;28.80;63.50;;;;;;5081886;28;20028;-67
2023/06/10 11:51:29;;;;;;;5.80;4.50;;;28.80;62.20;;;;;;5072593;28;20030;-67
2023/06/10 11:53:55;;;;;;;8.07;5.25;;;28.90;62.70;;;;;;5079607;28;20105;-67
2023/06/10 11:56:28;;;;;;;10.32;6.13;;;28.80;63.20;;;;;;5076067;28;20500;-67
2023/06/10 11:58:57;;;;;;;6.53;4.72;;;28.90;63.70;;;;;;5080420;28;20017;-67
2023/06/10 12:01:24;;;;;;;10.40;4.88;;;28.90;62.10;;;;;;5085084;28;20024;-69
2023/06/10 12:04:02;;;;;;;6.38;5.00;;;28.90;61.10;;;;;;5085358;28;20048;-72
2023/06/10 12:06:41;;;;;;;6.03;4.68;;;28.90;60.50;;;;;;5079039;28;20036;-67
2023/06/10 12:09:17;;;;;;;6.25;5.00;;;28.90;63.40;;;;;;5075061;28;20031;-68
2023/06/10 12:11:43;;;;;;;9.80;5.07;;;29.00;60.60;;;;;;5084808;28;20034;-68
2023/06/10 12:14:09;;;;;;;8.88;4.85;;;29.00;61.00;;;;;;5093590;28;20076;-66
2023/06/10 12:16:35;;;;;;;6.82;4.78;;;29.00;61.10;;;;;;5089068;28;20115;-68
2023/06/10 12:19:05;;;;;;;7.97;4.97;;;29.00;61.90;;;;;;5087296;28;20028;-67
2023/06/10 12:21:33;;;;;;;5.97;5.32;;;29.00;61.10;;;;;;5086569;28;20027;-68
2023/06/10 12:24:02;;;;;;;14.05;8.98;;;29.00;64.60;;;;;;5089908;28;20037;-67
2023/06/10 12:26:55;;;;;;;11.15;5.70;;;28.90;68.90;;;;;;5085603;28;20439;-66
2023/06/10 12:29:24;;;;;;;8.02;5.00;;;28.90;63.60;;;;;;5089342;28;20590;-66
2023/06/10 12:31:53;;;;;;;8.88;5.05;;;28.90;61.60;;;;;;5088091;28;20111;-69
2023/06/10 12:34:20;;;;;;;11.90;6.47;;;28.90;61.40;;;;;;5081088;28;20020;-67
2023/06/10 12:36:52;;;;;;;8.95;5.30;;;28.90;67.00;;;;;;5082156;28;20032;-66
2023/06/10 12:39:17;;;;;;;;;;;28.90;62.40;;;;;;5092856;28;20581;-67
2023/06/10 12:41:51;;;;;;;8.65;5.53;;;28.90;63.50;;;;;;5089246;28;20353;-67
2023/06/10 12:44:16;;;;;;;8.07;4.70;;;28.90;61.70;;;;;;5083902;28;20229;-64
2023/06/10 12:46:42;;;;;;;7.28;4.78;;;28.90;63.20;;;;;;5077592;28;20457;-65